Pays
Station

 

Conditions  météo  pour  Mount Isa Amo  -  Australie    Australie

  
31 °C
    
 
 

METAR pour Mount Isa Amo :

YBMA 212330Z AUTO 14009KT 9999 // NCD 31/M03 Q1015 RF00.0/000.0

 

Voici le bulletin pour Mount Isa Amo - Australie.
 
Le bulletin a été fait il y a 27 minutes, à 23:30 UTC .
Le vent soufflait à la vitesse de 4.6 mètres par seconde de Sud-est (140°).
 
La température était de 31 °C, avec un point de rosée à -3 °C.
La température ressentie était de 29 °C.
 
La pression atmosphérique était de 1015 hPa.
L'humidité relative était de 10.9%.
 
La visibilité globale était de supérieure à 10 kilomètres.
 

 
 
 

Pays :   A   B   C   D   E   F   G   H   I   J   K   L   M   N   O   P   Q   R   S   T   U   V   W   Y   Z

 

Partenaires :  Info Météo avec Met'info
Météo Marine avec MeteoMarine.net
Infos Site  |  Infos Légales  |  Crédits  |  Confidentialité
Contactez-nous  |  Ajouter aux favoris
© 2013-2018 METAR - Tous droits réservés